LFML/MRS METAR and TAF weather

Enter ICAO airport designator
Station Type Date Time Source
LFML METAR 2020/02/19 14:30 UTC NOAA

LFML 191430Z AUTO 31019KT CAVOK 15/05 Q1025 BECMG 32015G30KT


Station Type Date Time Source
LFML Decoded METAR 2020/02/19 14:30 UTC NOAA

Marseille / Marignane, France (LFML) 43-27N 005-14E 36M
Feb 19, 2020 - 09:30 AM EST / 2020.02.19 1430 UTC
Wind: from the NW (310 degrees) at 22 MPH (19 KT):0
Visibility: greater than 7 mile(s):0
Temperature: 59 F (15 C)
Dew Point: 41 F (5 C)
Relative Humidity: 51%
Pressure (altimeter): 30.27 in. Hg (1025 hPa)
ob: LFML 191430Z AUTO 31019KT CAVOK 15/05 Q1025 BECMG 32015G30KT
cycle: 14

Station Type Date Time Source
LFML TAF 2020/02/19 15:25 UTC NOAA

TAF LFML 191400Z 1915/2021 32015G30KT CAVOK TX15/1915Z TN05/2006Z
BECMG 2006/2008 34010KT
BECMG 2011/2012 VRB03KT

Example: see airport list